createdAt,value
2023-01-03T00:01:47.525Z,1.20
2023-01-03T00:04:15.616Z,1.02
2023-01-03T00:06:50.208Z,1.25
2023-01-03T00:09:21.536Z,1.17
2023-01-03T00:12:10.368Z,1.20
2023-01-03T00:14:43.077Z,1.00
2023-01-03T00:17:12.704Z,1.05
2023-01-03T00:19:43.843Z,1.30
2023-01-03T00:22:12.817Z,1.05
2023-01-03T00:24:39.838Z,1.10
2023-01-03T00:27:06.889Z,1.40
2023-01-03T00:29:34.181Z,0.98
2023-01-03T00:32:01.788Z,1.02
2023-01-03T00:34:29.515Z,1.17
2023-01-03T00:36:56.516Z,0.82
2023-01-03T00:39:24.006Z,1.50
2023-01-03T00:41:51.139Z,1.20
2023-01-03T00:44:18.555Z,1.20
2023-01-03T00:47:03.440Z,1.13
2023-01-03T00:49:33.892Z,1.13
2023-01-03T00:52:00.755Z,1.50
2023-01-03T00:54:27.747Z,1.05
2023-01-03T00:56:54.686Z,1.55
2023-01-03T00:59:22.403Z,1.10
2023-01-03T01:01:54.155Z,1.77
2023-01-03T01:04:30.986Z,1.30
2023-01-03T01:07:01.944Z,1.65
2023-01-03T01:09:33.337Z,1.70
2023-01-03T01:12:00.409Z,1.13
2023-01-03T01:14:29.864Z,1.40
2023-01-03T01:17:01.462Z,1.20
2023-01-03T01:19:50.406Z,1.58
2023-01-03T01:22:17.290Z,1.50
2023-01-03T01:24:44.167Z,1.10
2023-01-03T01:27:11.409Z,1.00
2023-01-03T01:29:39.346Z,1.23
2023-01-03T01:32:06.951Z,1.25
2023-01-03T01:34:34.210Z,0.80
2023-01-03T01:37:01.188Z,0.98
2023-01-03T01:39:30.112Z,1.20
2023-01-03T01:42:22.342Z,0.85
2023-01-03T01:45:15.087Z,1.10
2023-01-03T01:47:58.031Z,0.80
2023-01-03T01:50:33.770Z,1.10
2023-01-03T01:53:20.402Z,1.20
2023-01-03T01:55:55.093Z,1.23
2023-01-03T01:58:27.885Z,1.05
2023-01-03T02:00:56.003Z,0.98
2023-01-03T02:03:22.999Z,1.40
2023-01-03T02:05:56.137Z,1.20
2023-01-03T02:08:24.962Z,1.00
2023-01-03T02:11:23.389Z,1.10
2023-01-03T02:14:27.871Z,1.17
2023-01-03T02:17:17.798Z,1.08
2023-01-03T02:20:21.216Z,1.17
2023-01-03T02:23:19.928Z,1.00
2023-01-03T02:26:38.153Z,1.15
2023-01-03T02:29:29.403Z,0.82
2023-01-03T02:32:16.772Z,0.93
2023-01-03T02:35:16.193Z,1.00
2023-01-03T02:38:22.313Z,0.88
2023-01-03T02:41:16.958Z,1.27
2023-01-03T02:43:56.274Z,0.95
2023-01-03T02:46:50.328Z,1.10
2023-01-03T02:49:37.490Z,1.02
2023-01-03T02:52:11.600Z,1.05
2023-01-03T02:54:46.360Z,1.25
2023-01-03T02:57:24.307Z,1.20
2023-01-03T03:00:03.490Z,1.23
2023-01-03T03:02:35.753Z,1.23
2023-01-03T03:05:11.135Z,1.10
2023-01-03T03:07:40.795Z,0.80
2023-01-03T03:10:29.839Z,1.30
2023-01-03T03:13:14.270Z,1.10
2023-01-03T03:15:56.671Z,1.02
2023-01-03T03:18:34.175Z,0.95
2023-01-03T03:21:24.146Z,1.30
2023-01-03T03:24:12.353Z,1.00
2023-01-03T03:26:44.498Z,1.20
2023-01-03T03:29:17.888Z,1.00
2023-01-03T03:31:51.024Z,1.10
2023-01-03T03:34:21.406Z,1.10
2023-01-03T03:37:06.292Z,1.15
2023-01-03T03:39:53.033Z,1.20
2023-01-03T03:43:16.909Z,1.05
2023-01-03T03:46:07.958Z,1.10
2023-01-03T03:49:07.421Z,1.20
2023-01-03T03:51:37.958Z,1.45
2023-01-03T03:54:14.040Z,0.98
2023-01-03T03:56:45.224Z,1.15
2023-01-03T03:59:13.389Z,1.30
2023-01-03T04:01:43.180Z,1.20
2023-01-03T04:04:19.970Z,1.05
2023-01-03T04:06:51.271Z,1.20
2023-01-03T04:09:19.652Z,1.00
2023-01-03T04:11:46.664Z,1.23
2023-01-03T04:14:13.576Z,1.20
2023-01-03T04:16:43.085Z,1.00
2023-01-03T04:19:10.053Z,1.17
2023-01-03T04:21:37.006Z,1.27
2023-01-03T04:24:05.470Z,1.10
2023-01-03T04:26:32.743Z,1.30
2023-01-03T04:28:59.571Z,1.23
2023-01-03T04:31:26.940Z,1.17
2023-01-03T04:33:54.027Z,0.93
2023-01-03T04:36:21.548Z,1.15
2023-01-03T04:38:48.805Z,1.02
2023-01-03T04:41:16.730Z,0.90
2023-01-03T04:44:01.604Z,0.93
2023-01-03T04:46:36.611Z,1.10
2023-01-03T04:49:06.046Z,0.80
2023-01-03T04:51:34.253Z,0.95
2023-01-03T04:54:02.364Z,0.80
2023-01-03T04:56:35.833Z,1.10
2023-01-03T04:59:03.846Z,1.00
2023-01-03T05:01:31.193Z,1.00
2023-01-03T05:04:01.696Z,0.93
2023-01-03T05:06:29.671Z,0.85
2023-01-03T05:08:57.121Z,1.08
2023-01-03T05:11:24.471Z,0.70
2023-01-03T05:13:51.475Z,0.70
2023-01-03T05:16:18.822Z,1.08
2023-01-03T05:18:47.009Z,0.90
2023-01-03T05:21:37.758Z,1.08
2023-01-03T05:24:24.787Z,1.10
2023-01-03T05:26:53.040Z,1.10
2023-01-03T05:29:22.205Z,0.93
2023-01-03T05:31:49.683Z,1.20
2023-01-03T05:34:16.997Z,1.48
2023-01-03T05:36:43.902Z,1.10
2023-01-03T05:39:11.375Z,1.10
2023-01-03T05:41:57.376Z,1.27
2023-01-03T05:44:24.773Z,1.48
2023-01-03T05:46:51.990Z,1.15
2023-01-03T05:49:18.904Z,0.95
2023-01-03T05:51:46.227Z,1.40
2023-01-03T05:54:16.335Z,1.35
2023-01-03T05:56:43.657Z,1.08
2023-01-03T05:59:11.598Z,1.40
2023-01-03T06:01:38.933Z,1.45
2023-01-03T06:04:06.787Z,1.38
2023-01-03T06:06:33.857Z,1.23
2023-01-03T06:09:00.817Z,1.20
2023-01-03T06:11:27.960Z,1.15
2023-01-03T06:13:54.865Z,1.30
2023-01-03T06:16:40.744Z,1.50
2023-01-03T06:19:09.119Z,1.63
2023-01-03T06:21:36.847Z,1.50
2023-01-03T06:24:04.883Z,1.50
2023-01-03T06:26:31.815Z,2.05
2023-01-03T06:29:00.450Z,1.60
2023-01-03T06:31:27.877Z,1.83
2023-01-03T06:33:54.882Z,1.70
2023-01-03T06:36:23.970Z,1.90
2023-01-03T06:38:51.081Z,1.58
2023-01-03T06:41:18.116Z,1.75
2023-01-03T06:43:45.573Z,2.28
2023-01-03T06:46:32.601Z,2.40
2023-01-03T06:49:18.912Z,2.33
2023-01-03T06:52:08.778Z,2.00
2023-01-03T06:54:38.419Z,1.67
2023-01-03T06:57:06.083Z,2.42
2023-01-03T06:59:33.089Z,2.40
2023-01-03T07:02:00.494Z,2.17
2023-01-03T07:04:27.717Z,2.17
2023-01-03T07:06:54.784Z,2.38
2023-01-03T07:09:21.815Z,2.63
2023-01-03T07:11:48.731Z,2.22
2023-01-03T07:14:17.376Z,2.08
2023-01-03T07:16:47.093Z,2.08
2023-01-03T07:19:19.503Z,2.25
2023-01-03T07:21:47.182Z,2.22
2023-01-03T07:24:18.715Z,2.50
2023-01-03T07:26:45.828Z,2.20
2023-01-03T07:29:13.716Z,2.28
2023-01-03T07:31:42.043Z,2.40
2023-01-03T07:34:09.699Z,2.33
2023-01-03T07:36:37.160Z,2.60
2023-01-03T07:39:04.718Z,2.60
2023-01-03T07:41:50.121Z,2.42
2023-01-03T07:44:18.783Z,2.53
2023-01-03T07:46:45.761Z,2.70
2023-01-03T07:49:12.789Z,2.63
2023-01-03T07:51:39.836Z,2.78
2023-01-03T07:54:07.704Z,2.75
2023-01-03T07:56:35.294Z,2.72
2023-01-03T07:59:02.443Z,3.05
2023-01-03T08:01:30.501Z,3.55
2023-01-03T08:03:58.077Z,3.55
2023-01-03T08:06:25.388Z,4.10
2023-01-03T08:09:11.579Z,3.30
2023-01-03T08:11:57.909Z,3.45
2023-01-03T08:14:26.672Z,3.50
2023-01-03T08:16:57.258Z,3.35
2023-01-03T08:19:24.866Z,3.45
2023-01-03T08:21:52.226Z,3.50
2023-01-03T08:24:19.270Z,3.58
2023-01-03T08:26:46.143Z,3.08
2023-01-03T08:29:13.070Z,3.03
2023-01-03T08:31:48.534Z,3.38
2023-01-03T08:34:21.114Z,3.40
2023-01-03T08:37:02.065Z,3.42
2023-01-03T08:39:39.241Z,3.10
2023-01-03T08:42:09.379Z,3.65
2023-01-03T08:44:38.153Z,3.63
2023-01-03T08:47:08.612Z,3.22
2023-01-03T08:49:36.417Z,3.50
2023-01-03T08:52:04.238Z,3.00
2023-01-03T08:54:31.492Z,3.63
2023-01-03T08:56:58.505Z,3.25
2023-01-03T08:59:25.425Z,3.47
2023-01-03T09:01:52.503Z,2.65
2023-01-03T09:04:19.694Z,2.72
2023-01-03T09:06:46.906Z,2.60
2023-01-03T09:09:13.811Z,2.58
2023-01-03T09:11:40.684Z,2.63
2023-01-03T09:14:07.607Z,2.72
2023-01-03T09:16:34.620Z,2.50
2023-01-03T09:19:02.649Z,2.63
2023-01-03T09:21:29.923Z,2.60
2023-01-03T09:23:58.600Z,2.47
2023-01-03T09:26:25.604Z,2.95
2023-01-03T09:28:52.597Z,2.78
2023-01-03T09:31:19.669Z,2.00
2023-01-03T09:33:46.560Z,2.65
2023-01-03T09:36:13.577Z,2.65
2023-01-03T09:38:40.497Z,2.50
2023-01-03T09:41:21.085Z,2.50
2023-01-03T09:43:51.785Z,2.63
2023-01-03T09:46:25.675Z,2.50
2023-01-03T09:48:57.725Z,2.15
2023-01-03T09:51:50.135Z,2.50
2023-01-03T09:54:51.454Z,2.90
2023-01-03T09:57:45.474Z,2.45
2023-01-03T10:00:46.213Z,2.50
2023-01-03T10:03:57.925Z,3.15
2023-01-03T10:07:06.201Z,2.83
2023-01-03T10:09:49.567Z,3.58
2023-01-03T10:13:04.801Z,2.60
2023-01-03T10:15:59.196Z,2.50
2023-01-03T10:19:11.219Z,2.35
2023-01-03T10:21:49.720Z,2.65
2023-01-03T10:24:32.016Z,2.70
2023-01-03T10:27:19.245Z,2.67
2023-01-03T10:29:50.145Z,2.60
2023-01-03T10:32:57.542Z,2.25
2023-01-03T10:35:36.283Z,2.20
2023-01-03T10:38:04.233Z,2.33
2023-01-03T10:40:44.483Z,2.33
2023-01-03T10:43:20.433Z,2.00
2023-01-03T10:45:54.550Z,2.10
2023-01-03T10:48:23.015Z,1.95
2023-01-03T10:50:51.055Z,2.10
2023-01-03T10:53:22.970Z,2.08
2023-01-03T10:55:54.823Z,2.22
2023-01-03T10:58:36.162Z,2.00
2023-01-03T11:01:24.074Z,2.10
2023-01-03T11:04:27.701Z,2.00
2023-01-03T11:07:09.349Z,1.80
2023-01-03T11:09:52.730Z,2.42
2023-01-03T11:12:40.517Z,2.08
2023-01-03T11:15:38.394Z,1.60
2023-01-03T11:18:19.116Z,1.25
2023-01-03T11:21:46.070Z,1.70
2023-01-03T11:24:29.131Z,1.20
2023-01-03T11:27:14.037Z,1.45
2023-01-03T11:29:59.120Z,1.67
2023-01-03T11:32:53.755Z,1.50
2023-01-03T11:35:46.807Z,1.60
2023-01-03T11:39:10.990Z,1.48
2023-01-03T11:42:32.242Z,1.70
2023-01-03T11:45:48.151Z,1.77
2023-01-03T11:51:15.571Z,1.52
2023-01-03T11:54:43.176Z,4.90
2023-01-03T11:58:02.377Z,1.48
2023-01-03T12:00:58.636Z,1.05
2023-01-03T12:04:00.414Z,0.95
2023-01-03T12:07:21.610Z,1.30
2023-01-03T12:10:13.597Z,1.25
2023-01-03T12:13:15.912Z,1.23
2023-01-03T12:15:51.938Z,1.40
2023-01-03T12:18:58.840Z,0.70
2023-01-03T12:21:49.406Z,1.33
2023-01-03T12:24:28.437Z,0.90
2023-01-03T12:27:03.653Z,0.85
2023-01-03T12:32:17.979Z,0.70
2023-01-03T12:35:00.436Z,0.88
2023-01-03T12:37:33.602Z,1.10
2023-01-03T12:40:09.385Z,0.90
2023-01-03T12:42:48.634Z,0.90
2023-01-03T12:45:34.663Z,0.77
2023-01-03T12:48:10.831Z,0.80
2023-01-03T12:50:47.262Z,1.05
2023-01-03T12:53:33.893Z,0.90
2023-01-03T12:56:24.876Z,0.68
2023-01-03T12:59:59.288Z,0.80
2023-01-03T13:02:51.768Z,1.20
2023-01-03T13:05:42.612Z,0.90
2023-01-03T13:08:41.093Z,1.05
2023-01-03T13:11:29.443Z,0.80
2023-01-03T13:14:05.006Z,0.85
2023-01-03T13:16:37.735Z,0.73
2023-01-03T13:19:22.743Z,0.90
2023-01-03T13:21:55.804Z,0.90
2023-01-03T13:24:51.651Z,1.00
2023-01-03T13:27:18.979Z,0.98
2023-01-03T13:29:48.844Z,0.90
2023-01-03T13:32:21.348Z,0.85
2023-01-03T13:34:54.311Z,1.10
2023-01-03T13:37:51.194Z,1.20
2023-01-03T13:41:07.527Z,0.70
2023-01-03T13:43:27.828Z,0.80
2023-01-03T13:45:59.426Z,1.02
2023-01-03T13:48:31.666Z,0.65
2023-01-03T13:51:30.880Z,0.63
2023-01-03T13:54:22.291Z,0.68
2023-01-03T13:56:49.139Z,0.90
2023-01-03T13:59:22.215Z,1.23
2023-01-03T14:02:11.790Z,0.90
2023-01-03T14:04:41.721Z,0.85
2023-01-03T14:07:57.832Z,1.50
2023-01-03T14:10:46.623Z,1.13
2023-01-03T14:13:49.421Z,1.20
2023-01-03T14:16:22.107Z,1.80
2023-01-03T14:19:02.019Z,2.00
2023-01-03T14:21:46.364Z,1.35
2023-01-03T14:24:32.349Z,1.20
2023-01-03T14:27:16.946Z,1.30
2023-01-03T14:29:54.081Z,2.08
2023-01-03T14:32:33.781Z,1.10
2023-01-03T14:35:01.545Z,1.35
2023-01-03T14:37:28.628Z,1.25
2023-01-03T14:40:05.682Z,1.23
2023-01-03T14:42:32.636Z,0.90
2023-01-03T14:45:05.917Z,1.08
2023-01-03T14:47:35.248Z,0.95
2023-01-03T14:50:04.740Z,0.77
2023-01-03T14:52:42.785Z,0.80
2023-01-03T14:55:18.954Z,0.75
2023-01-03T14:57:49.322Z,1.20
2023-01-03T15:00:32.928Z,1.02
2023-01-03T15:03:03.573Z,0.93
2023-01-03T15:05:33.521Z,1.10
2023-01-03T15:08:22.161Z,0.90
2023-01-03T15:10:59.731Z,0.90
2023-01-03T15:13:38.475Z,1.25
2023-01-03T15:16:23.109Z,1.08
2023-01-03T15:18:50.592Z,0.93
2023-01-03T15:21:21.804Z,1.10
2023-01-03T15:23:50.124Z,1.15
2023-01-03T15:26:39.059Z,1.00
2023-01-03T15:29:17.851Z,2.15
2023-01-03T15:31:54.070Z,2.13
2023-01-03T15:34:37.011Z,1.55
2023-01-03T15:37:19.375Z,1.23
2023-01-03T15:39:55.009Z,1.80
2023-01-03T15:42:56.265Z,1.60
2023-01-03T15:45:37.684Z,1.80
2023-01-03T15:48:14.617Z,1.90
2023-01-03T15:50:47.904Z,1.55
2023-01-03T15:53:27.380Z,1.30
2023-01-03T15:56:05.756Z,1.25
2023-01-03T15:58:35.930Z,1.38
2023-01-03T16:01:04.687Z,1.40
2023-01-03T16:03:34.364Z,1.10
2023-01-03T16:06:02.192Z,1.10
2023-01-03T16:08:32.559Z,1.30
2023-01-03T16:11:03.719Z,1.30
2023-01-03T16:13:40.009Z,1.27
2023-01-03T16:16:08.780Z,1.55
2023-01-03T16:18:45.260Z,1.65
2023-01-03T16:21:13.857Z,2.08
2023-01-03T16:23:41.015Z,1.40
2023-01-03T16:26:11.277Z,1.77
2023-01-03T16:28:38.832Z,1.60
2023-01-03T16:31:11.951Z,1.60
2023-01-03T16:33:41.536Z,1.60
2023-01-03T16:36:31.929Z,1.30
2023-01-03T16:38:59.636Z,2.10
2023-01-03T16:41:27.111Z,1.55
2023-01-03T16:43:54.436Z,1.50
2023-01-03T16:46:25.488Z,1.30
2023-01-03T16:48:56.244Z,1.17
2023-01-03T16:51:28.537Z,1.02
2023-01-03T16:53:58.206Z,1.15
2023-01-03T16:56:26.377Z,1.40
2023-01-03T16:58:53.681Z,1.20
2023-01-03T17:01:21.291Z,1.20
2023-01-03T17:03:48.648Z,1.10
2023-01-03T17:06:38.089Z,1.23
2023-01-03T17:09:32.028Z,1.85
2023-01-03T17:11:59.179Z,1.52
2023-01-03T17:14:26.186Z,2.00
2023-01-03T17:16:53.227Z,1.90
2023-01-03T17:22:23.183Z,1.48
2023-01-03T17:24:52.187Z,1.45
2023-01-03T17:27:32.433Z,1.58
2023-01-03T17:30:04.413Z,1.55
2023-01-03T17:32:31.745Z,1.92
2023-01-03T17:34:58.674Z,2.10
2023-01-03T17:37:26.307Z,1.65
2023-01-03T17:39:57.587Z,1.98
2023-01-03T17:42:28.860Z,1.70
2023-01-03T17:45:14.375Z,1.77
2023-01-03T17:48:02.287Z,1.77
2023-01-03T17:50:31.537Z,1.45
2023-01-03T17:53:01.799Z,1.58
2023-01-03T17:55:30.884Z,2.00
2023-01-03T17:58:02.525Z,1.80
2023-01-03T18:00:31.171Z,1.90
2023-01-03T18:03:01.094Z,1.50
2023-01-03T18:05:29.770Z,1.70
2023-01-03T18:08:00.617Z,1.90
2023-01-03T18:10:46.271Z,1.90
2023-01-03T18:13:37.632Z,1.70
2023-01-03T18:16:05.070Z,2.15
2023-01-03T18:18:32.805Z,2.17
2023-01-03T18:20:59.916Z,2.58
2023-01-03T18:23:36.046Z,2.20
2023-01-03T18:26:14.461Z,2.80
2023-01-03T18:28:41.642Z,2.75
2023-01-03T18:31:16.092Z,2.72
2023-01-03T18:34:20.240Z,3.03
2023-01-03T18:36:52.201Z,2.90
2023-01-03T18:39:29.870Z,3.20
2023-01-03T18:42:16.509Z,3.60
2023-01-03T18:44:43.442Z,3.33
2023-01-03T18:47:13.350Z,3.22
2023-01-03T18:49:40.783Z,3.55
2023-01-03T18:52:35.020Z,2.72
2023-01-03T18:55:03.147Z,2.90
2023-01-03T18:57:30.174Z,2.90
2023-01-03T18:59:57.272Z,3.10
2023-01-03T19:02:24.390Z,4.20
2023-01-03T19:04:52.190Z,4.65
2023-01-03T19:07:34.382Z,4.03
2023-01-03T19:10:06.536Z,3.72
2023-01-03T19:12:39.194Z,3.55
2023-01-03T19:15:29.260Z,3.60
2023-01-03T19:17:57.490Z,3.20
2023-01-03T19:20:27.179Z,3.47
2023-01-03T19:22:56.079Z,3.88
2023-01-03T19:25:32.078Z,3.60
2023-01-03T19:28:04.194Z,3.60
2023-01-03T19:30:39.834Z,3.72
2023-01-03T19:33:13.945Z,3.78
2023-01-03T19:35:42.215Z,3.78
2023-01-03T19:38:09.687Z,3.33
2023-01-03T19:40:40.025Z,3.50
2023-01-03T19:43:07.069Z,3.78
2023-01-03T19:45:40.781Z,4.13
2023-01-03T19:48:24.102Z,4.03
2023-01-03T19:50:53.194Z,3.63
2023-01-03T19:53:20.339Z,3.63
2023-01-03T19:55:51.942Z,3.40
2023-01-03T19:58:33.614Z,4.18
2023-01-03T20:01:01.180Z,4.68
2023-01-03T20:03:34.278Z,3.63
2023-01-03T20:06:02.059Z,4.75
2023-01-03T20:08:29.285Z,4.57
2023-01-03T20:10:57.967Z,4.70
2023-01-03T20:13:27.305Z,4.28
2023-01-03T20:16:00.316Z,4.20
2023-01-03T20:18:36.264Z,3.92
2023-01-03T20:21:37.774Z,3.80
2023-01-03T20:24:08.190Z,3.95
2023-01-03T20:26:36.596Z,3.67
2023-01-03T20:29:03.935Z,3.75
2023-01-03T20:31:31.189Z,3.25
2023-01-03T20:33:59.831Z,2.88
2023-01-03T20:36:40.133Z,3.05
2023-01-03T20:39:27.775Z,3.17
2023-01-03T20:41:59.896Z,3.40
2023-01-03T20:44:30.308Z,3.60
2023-01-03T20:46:57.733Z,3.22
2023-01-03T20:49:28.041Z,3.38
2023-01-03T20:51:55.203Z,3.35
2023-01-03T20:54:22.500Z,2.88
2023-01-03T20:56:49.717Z,3.47
2023-01-03T20:59:19.969Z,3.03
2023-01-03T21:01:50.609Z,2.88
2023-01-03T21:04:17.673Z,2.83
2023-01-03T21:06:45.512Z,2.83
2023-01-03T21:09:14.116Z,3.05
2023-01-03T21:11:41.150Z,3.28
2023-01-03T21:14:08.331Z,2.90
2023-01-03T21:16:43.461Z,3.30
2023-01-03T21:21:55.245Z,3.05
2023-01-03T21:24:24.598Z,3.00
2023-01-03T21:26:51.940Z,2.90
2023-01-03T21:29:18.904Z,2.85
2023-01-03T21:31:46.343Z,3.40
2023-01-03T21:34:19.128Z,2.80
2023-01-03T21:36:46.918Z,2.92
2023-01-03T21:39:14.570Z,3.20
2023-01-03T21:42:00.857Z,2.83
2023-01-03T21:44:27.849Z,2.75
2023-01-03T21:46:54.773Z,2.40
2023-01-03T21:49:21.775Z,2.90
2023-01-03T21:51:48.717Z,2.78
2023-01-03T21:54:15.563Z,3.10
2023-01-03T21:56:46.387Z,3.10
2023-01-03T21:59:15.771Z,2.88
2023-01-03T22:02:06.227Z,2.88
2023-01-03T22:04:34.053Z,2.78
2023-01-03T22:07:01.723Z,2.88
2023-01-03T22:09:49.822Z,3.03
2023-01-03T22:12:18.248Z,3.13
2023-01-03T22:14:46.332Z,2.83
2023-01-03T22:17:13.999Z,3.25
2023-01-03T22:19:41.301Z,3.50
2023-01-03T22:22:08.372Z,3.38
2023-01-03T22:24:35.266Z,3.17
2023-01-03T22:27:02.202Z,3.45
2023-01-03T22:29:29.218Z,3.55
2023-01-03T22:31:56.169Z,3.17
2023-01-03T22:34:23.212Z,3.42
2023-01-03T22:36:50.273Z,2.88
2023-01-03T22:39:17.183Z,3.15
2023-01-03T22:41:44.053Z,3.53
2023-01-03T22:44:10.958Z,2.78
2023-01-03T22:46:38.557Z,5.53
2023-01-03T22:49:05.382Z,4.80
2023-01-03T22:51:32.359Z,3.03
2023-01-03T22:53:59.291Z,3.05
2023-01-03T22:56:26.262Z,2.63
2023-01-03T22:58:53.154Z,2.95
2023-01-03T23:01:28.248Z,2.20
2023-01-03T23:04:03.327Z,2.63
2023-01-03T23:06:36.122Z,2.95
2023-01-03T23:09:04.000Z,2.88
2023-01-03T23:11:51.404Z,2.80
2023-01-03T23:14:20.857Z,3.20
2023-01-03T23:16:50.980Z,2.75
2023-01-03T23:19:21.329Z,2.50
2023-01-03T23:21:48.400Z,2.80
2023-01-03T23:24:23.065Z,2.85
2023-01-03T23:26:51.985Z,3.20
2023-01-03T23:29:19.399Z,2.47
2023-01-03T23:31:46.322Z,2.60
2023-01-03T23:34:13.504Z,2.28
2023-01-03T23:36:42.824Z,2.63
2023-01-03T23:39:14.261Z,2.42
2023-01-03T23:41:41.276Z,2.40
2023-01-03T23:44:08.577Z,2.60
2023-01-03T23:46:35.544Z,2.95
2023-01-03T23:49:02.867Z,2.63
2023-01-03T23:51:29.989Z,2.58
2023-01-03T23:53:56.970Z,2.45
2023-01-03T23:56:25.035Z,2.55
2023-01-03T23:58:53.084Z,2.88
